sensor_id;sensor_type;location;lat;lon;timestamp;pressure;altitude;pressure_sealevel;temperature;humidity
69911;BME280;63555;49.920;17.868;2022-11-20T00:00:55;98387.72;;;-6.67;75.81
69911;BME280;63555;49.920;17.868;2022-11-20T00:03:20;98382.59;;;-6.68;75.67
69911;BME280;63555;49.920;17.868;2022-11-20T00:05:46;98384.38;;;-6.72;75.40
69911;BME280;63555;49.920;17.868;2022-11-20T00:08:11;98388.69;;;-6.77;75.81
69911;BME280;63555;49.920;17.868;2022-11-20T00:10:38;98384.53;;;-6.86;75.69
69911;BME280;63555;49.920;17.868;2022-11-20T00:13:05;98377.00;;;-6.99;75.90
69911;BME280;63555;49.920;17.868;2022-11-20T00:15:30;98379.69;;;-7.10;76.49
69911;BME280;63555;49.920;17.868;2022-11-20T00:17:56;98384.06;;;-7.20;76.68
69911;BME280;63555;49.920;17.868;2022-11-20T00:20:21;98384.16;;;-7.27;77.65
69911;BME280;63555;49.920;17.868;2022-11-20T00:22:46;98386.78;;;-7.33;77.12
69911;BME280;63555;49.920;17.868;2022-11-20T00:25:12;98383.44;;;-7.40;77.00
69911;BME280;63555;49.920;17.868;2022-11-20T00:27:37;98379.19;;;-7.44;77.63
69911;BME280;63555;49.920;17.868;2022-11-20T00:30:03;98374.97;;;-7.48;77.86
69911;BME280;63555;49.920;17.868;2022-11-20T00:32:29;98378.41;;;-7.49;78.23
69911;BME280;63555;49.920;17.868;2022-11-20T00:34:55;98373.28;;;-7.51;78.32
69911;BME280;63555;49.920;17.868;2022-11-20T00:37:20;98369.91;;;-7.53;77.91
69911;BME280;63555;49.920;17.868;2022-11-20T00:39:45;98365.69;;;-7.57;78.34
69911;BME280;63555;49.920;17.868;2022-11-20T00:42:11;98370.00;;;-7.63;77.26
69911;BME280;63555;49.920;17.868;2022-11-20T00:44:36;98364.94;;;-7.69;77.61
69911;BME280;63555;49.920;17.868;2022-11-20T00:47:01;98367.59;;;-7.77;77.23
69911;BME280;63555;49.920;17.868;2022-11-20T00:49:27;98368.47;;;-7.84;77.21
69911;BME280;63555;49.920;17.868;2022-11-20T00:51:52;98364.25;;;-7.90;77.53
69911;BME280;63555;49.920;17.868;2022-11-20T00:54:17;98360.88;;;-7.95;77.97
69911;BME280;63555;49.920;17.868;2022-11-20T00:56:42;98361.78;;;-7.99;77.99
69911;BME280;63555;49.920;17.868;2022-11-20T00:59:09;98367.78;;;-8.05;77.99
69911;BME280;63555;49.920;17.868;2022-11-20T01:01:35;98370.38;;;-8.08;78.07
69911;BME280;63555;49.920;17.868;2022-11-20T01:04:01;98363.59;;;-8.12;77.92
69911;BME280;63555;49.920;17.868;2022-11-20T01:08:55;98372.16;;;-8.19;78.50
69911;BME280;63555;49.920;17.868;2022-11-20T01:11:25;98360.28;;;-8.24;77.95
69911;BME280;63555;49.920;17.868;2022-11-20T01:13:51;98357.75;;;-8.27;78.12
69911;BME280;63555;49.920;17.868;2022-11-20T01:18:47;98351.88;;;-8.36;78.33
69911;BME280;63555;49.920;17.868;2022-11-20T01:21:18;98346.78;;;-8.39;78.30
69911;BME280;63555;49.920;17.868;2022-11-20T01:23:45;98334.03;;;-8.42;78.39
69911;BME280;63555;49.920;17.868;2022-11-20T01:26:13;98334.03;;;-8.45;78.62
69911;BME280;63555;49.920;17.868;2022-11-20T01:28:39;98334.91;;;-8.47;78.58
69911;BME280;63555;49.920;17.868;2022-11-20T01:31:15;98329.81;;;-8.49;78.50
69911;BME280;63555;49.920;17.868;2022-11-20T01:33:41;98326.44;;;-8.52;78.56
69911;BME280;63555;49.920;17.868;2022-11-20T01:36:07;98322.16;;;-8.53;78.83
69911;BME280;63555;49.920;17.868;2022-11-20T01:38:33;98328.13;;;-8.53;78.82
69911;BME280;63555;49.920;17.868;2022-11-20T01:40:58;98329.84;;;-8.53;78.56
69911;BME280;63555;49.920;17.868;2022-11-20T01:43:24;98325.59;;;-8.54;79.01
69911;BME280;63555;49.920;17.868;2022-11-20T01:46:18;98324.75;;;-8.56;78.23
69911;BME280;63555;49.920;17.868;2022-11-20T01:51:52;98335.88;;;-8.62;78.83
69911;BME280;63555;49.920;17.868;2022-11-20T01:54:42;98332.47;;;-8.64;78.85
69911;BME280;63555;49.920;17.868;2022-11-20T01:57:09;98333.31;;;-8.68;78.28
69911;BME280;63555;49.920;17.868;2022-11-20T01:59:39;98332.47;;;-8.70;78.65
69911;BME280;63555;49.920;17.868;2022-11-20T02:02:06;98334.19;;;-8.74;78.48
69911;BME280;63555;49.920;17.868;2022-11-20T02:04:32;98345.28;;;-8.76;78.22
69911;BME280;63555;49.920;17.868;2022-11-20T02:07:00;98343.59;;;-8.80;78.28
69911;BME280;63555;49.920;17.868;2022-11-20T02:09:27;98353.84;;;-8.83;78.47
69911;BME280;63555;49.920;17.868;2022-11-20T02:11:53;98347.91;;;-8.85;78.49
69911;BME280;63555;49.920;17.868;2022-11-20T02:14:19;98355.56;;;-8.88;77.96
69911;BME280;63555;49.920;17.868;2022-11-20T02:16:47;98358.13;;;-8.88;78.38
69911;BME280;63555;49.920;17.868;2022-11-20T02:22:00;98366.63;;;-8.85;79.38
69911;BME280;63555;49.920;17.868;2022-11-20T02:24:27;98370.03;;;-8.83;79.46
69911;BME280;63555;49.920;17.868;2022-11-20T02:27:18;98373.41;;;-8.78;79.56
69911;BME280;63555;49.920;17.868;2022-11-20T02:29:52;98368.28;;;-8.78;79.42
69911;BME280;63555;49.920;17.868;2022-11-20T02:32:20;98365.75;;;-8.79;79.03
69911;BME280;63555;49.920;17.868;2022-11-20T02:34:46;98361.50;;;-8.83;78.97
69911;BME280;63555;49.920;17.868;2022-11-20T02:37:12;98369.19;;;-8.86;78.76
69911;BME280;63555;49.920;17.868;2022-11-20T02:39:38;98360.69;;;-8.90;78.14
69911;BME280;63555;49.920;17.868;2022-11-20T02:42:03;98363.25;;;-8.93;78.35
69911;BME280;63555;49.920;17.868;2022-11-20T02:44:28;98361.56;;;-8.95;78.48
69911;BME280;63555;49.920;17.868;2022-11-20T02:46:57;98367.53;;;-8.98;78.81
69911;BME280;63555;49.920;17.868;2022-11-20T02:49:22;98365.00;;;-9.00;78.96
69911;BME280;63555;49.920;17.868;2022-11-20T02:51:48;98361.59;;;-9.00;79.16
69911;BME280;63555;49.920;17.868;2022-11-20T02:54:13;98360.72;;;-8.99;78.71
69911;BME280;63555;49.920;17.868;2022-11-20T02:56:38;98364.97;;;-8.96;78.78
69911;BME280;63555;49.920;17.868;2022-11-20T02:59:04;98368.38;;;-8.96;78.60
69911;BME280;63555;49.920;17.868;2022-11-20T03:01:29;98369.25;;;-8.98;78.77
69911;BME280;63555;49.920;17.868;2022-11-20T03:03:55;98366.69;;;-9.00;78.45
69911;BME280;63555;49.920;17.868;2022-11-20T03:06:21;98371.81;;;-9.02;78.98
69911;BME280;63555;49.920;17.868;2022-11-20T03:08:47;98366.72;;;-9.03;78.37
69911;BME280;63555;49.920;17.868;2022-11-20T03:11:12;98372.69;;;-9.07;78.37
69911;BME280;63555;49.920;17.868;2022-11-20T03:13:38;98374.41;;;-9.09;78.47
69911;BME280;63555;49.920;17.868;2022-11-20T03:16:17;98374.41;;;-9.08;78.94
69911;BME280;63555;49.920;17.868;2022-11-20T03:18:44;98370.13;;;-9.06;79.11
69911;BME280;63555;49.920;17.868;2022-11-20T03:21:11;98372.66;;;-9.03;78.83
69911;BME280;63555;49.920;17.868;2022-11-20T03:23:37;98365.00;;;-9.00;79.16
69911;BME280;63555;49.920;17.868;2022-11-20T03:26:16;98366.69;;;-8.98;78.58
69911;BME280;63555;49.920;17.868;2022-11-20T03:28:46;98371.81;;;-8.98;78.71
69911;BME280;63555;49.920;17.868;2022-11-20T03:31:14;98370.97;;;-9.01;77.94
69911;BME280;63555;49.920;17.868;2022-11-20T03:33:41;98374.38;;;-9.02;78.61
69911;BME280;63555;49.920;17.868;2022-11-20T03:36:09;98372.66;;;-8.98;78.69
69911;BME280;63555;49.920;17.868;2022-11-20T03:38:35;98373.47;;;-8.93;78.88
69911;BME280;63555;49.920;17.868;2022-11-20T03:41:03;98375.16;;;-8.89;78.98
69911;BME280;63555;49.920;17.868;2022-11-20T03:43:29;98381.09;;;-8.85;79.03
69911;BME280;63555;49.920;17.868;2022-11-20T03:45:55;98379.41;;;-8.86;78.62
69911;BME280;63555;49.920;17.868;2022-11-20T03:48:20;98375.16;;;-8.87;78.15
69911;BME280;63555;49.920;17.868;2022-11-20T03:50:46;98375.16;;;-8.89;78.32
69911;BME280;63555;49.920;17.868;2022-11-20T03:53:13;98368.34;;;-8.90;79.07
69911;BME280;63555;49.920;17.868;2022-11-20T03:55:38;98372.63;;;-8.90;78.98
69911;BME280;63555;49.920;17.868;2022-11-20T03:58:04;98374.31;;;-8.92;78.78
69911;BME280;63555;49.920;17.868;2022-11-20T04:00:29;98366.69;;;-8.97;78.11
69911;BME280;63555;49.920;17.868;2022-11-20T04:02:58;98370.09;;;-9.01;78.44
69911;BME280;63555;49.920;17.868;2022-11-20T04:05:24;98365.88;;;-9.05;78.35
69911;BME280;63555;49.920;17.868;2022-11-20T04:07:49;98366.72;;;-9.08;78.08
69911;BME280;63555;49.920;17.868;2022-11-20T04:10:15;98359.09;;;-9.11;78.83
69911;BME280;63555;49.920;17.868;2022-11-20T04:12:40;98357.38;;;-9.12;78.43
69911;BME280;63555;49.920;17.868;2022-11-20T04:15:06;98353.16;;;-9.14;78.69
69911;BME280;63555;49.920;17.868;2022-11-20T04:17:31;98352.31;;;-9.16;78.39
69911;BME280;63555;49.920;17.868;2022-11-20T04:19:57;98358.28;;;-9.19;78.92
69911;BME280;63555;49.920;17.868;2022-11-20T04:22:22;98354.88;;;-9.21;78.96
69911;BME280;63555;49.920;17.868;2022-11-20T04:24:47;98350.63;;;-9.23;78.98
69911;BME280;63555;49.920;17.868;2022-11-20T04:27:13;98351.50;;;-9.27;78.49
69911;BME280;63555;49.920;17.868;2022-11-20T04:29:38;98344.69;;;-9.28;78.56
69911;BME280;63555;49.920;17.868;2022-11-20T04:32:03;98337.03;;;-9.30;78.40
69911;BME280;63555;49.920;17.868;2022-11-20T04:34:29;98342.16;;;-9.30;79.19
69911;BME280;63555;49.920;17.868;2022-11-20T04:36:54;98343.84;;;-9.26;79.26
69911;BME280;63555;49.920;17.868;2022-11-20T04:39:19;98329.34;;;-9.24;79.40
69911;BME280;63555;49.920;17.868;2022-11-20T04:41:45;98333.59;;;-9.24;78.29
69911;BME280;63555;49.920;17.868;2022-11-20T04:44:10;98339.56;;;-9.22;78.68
69911;BME280;63555;49.920;17.868;2022-11-20T04:46:39;98337.00;;;-9.22;78.33
69911;BME280;63555;49.920;17.868;2022-11-20T04:49:05;98336.16;;;-9.23;78.73
69911;BME280;63555;49.920;17.868;2022-11-20T04:51:31;98345.53;;;-9.25;78.66
69911;BME280;63555;49.920;17.868;2022-11-20T04:53:57;98339.56;;;-9.25;79.03
69911;BME280;63555;49.920;17.868;2022-11-20T04:56:22;98340.44;;;-9.28;78.69
69911;BME280;63555;49.920;17.868;2022-11-20T04:58:47;98341.28;;;-9.29;78.59
69911;BME280;63555;49.920;17.868;2022-11-20T05:01:19;98332.78;;;-9.29;78.88
69911;BME280;63555;49.920;17.868;2022-11-20T05:03:45;98334.47;;;-9.28;78.92
69911;BME280;63555;49.920;17.868;2022-11-20T05:06:13;98322.56;;;-9.29;78.63
69911;BME280;63555;49.920;17.868;2022-11-20T05:08:39;98320.03;;;-9.29;78.36
69911;BME280;63555;49.920;17.868;2022-11-20T05:11:10;98324.28;;;-9.30;78.73
69911;BME280;63555;49.920;17.868;2022-11-20T05:13:36;98331.94;;;-9.28;78.33
69911;BME280;63555;49.920;17.868;2022-11-20T05:16:06;98324.28;;;-9.30;78.69
69911;BME280;63555;49.920;17.868;2022-11-20T05:18:33;98329.38;;;-9.28;78.57
69911;BME280;63555;49.920;17.868;2022-11-20T05:20:59;98325.13;;;-9.26;78.42
69911;BME280;63555;49.920;17.868;2022-11-20T05:23:25;98322.56;;;-9.25;78.82
69911;BME280;63555;49.920;17.868;2022-11-20T05:25:54;98322.53;;;-9.23;78.04
69911;BME280;63555;49.920;17.868;2022-11-20T05:28:20;98319.16;;;-9.24;77.93
69911;BME280;63555;49.920;17.868;2022-11-20T05:30:46;98319.13;;;-9.22;78.27
69911;BME280;63555;49.920;17.868;2022-11-20T05:33:11;98324.22;;;-9.19;78.04
69911;BME280;63555;49.920;17.868;2022-11-20T05:35:37;98317.41;;;-9.17;78.65
69911;BME280;63555;49.920;17.868;2022-11-20T05:38:02;98314.84;;;-9.13;78.64
69911;BME280;63555;49.920;17.868;2022-11-20T05:40:28;98308.00;;;-9.09;77.99
69911;BME280;63555;49.920;17.868;2022-11-20T05:42:53;98295.22;;;-9.05;78.89
69911;BME280;63555;49.920;17.868;2022-11-20T05:45:18;98294.34;;;-8.99;78.71
69911;BME280;63555;49.920;17.868;2022-11-20T05:47:44;98296.84;;;-8.94;77.93
69911;BME280;63555;49.920;17.868;2022-11-20T05:50:09;98300.25;;;-8.91;78.52
69911;BME280;63555;49.920;17.868;2022-11-20T05:52:34;98307.03;;;-8.87;78.20
69911;BME280;63555;49.920;17.868;2022-11-20T05:55:00;98300.19;;;-8.83;78.00
69911;BME280;63555;49.920;17.868;2022-11-20T05:57:25;98295.91;;;-8.80;77.78
69911;BME280;63555;49.920;17.868;2022-11-20T05:59:51;98285.69;;;-8.78;78.24
69911;BME280;63555;49.920;17.868;2022-11-20T06:02:17;98291.63;;;-8.75;77.78
69911;BME280;63555;49.920;17.868;2022-11-20T06:04:42;98294.16;;;-8.72;77.97
69911;BME280;63555;49.920;17.868;2022-11-20T06:07:07;98292.44;;;-8.71;77.82
69911;BME280;63555;49.920;17.868;2022-11-20T06:09:33;98289.91;;;-8.71;77.93
69911;BME280;63555;49.920;17.868;2022-11-20T06:11:59;98290.72;;;-8.69;77.80
69911;BME280;63555;49.920;17.868;2022-11-20T06:14:24;98292.44;;;-8.70;77.67
69911;BME280;63555;49.920;17.868;2022-11-20T06:16:49;98285.63;;;-8.71;77.94
69911;BME280;63555;49.920;17.868;2022-11-20T06:19:15;98282.22;;;-8.70;78.13
69911;BME280;63555;49.920;17.868;2022-11-20T06:21:40;98284.78;;;-8.70;77.96
69911;BME280;63555;49.920;17.868;2022-11-20T06:24:06;98277.97;;;-8.69;77.65
69911;BME280;63555;49.920;17.868;2022-11-20T06:26:31;98272.00;;;-8.70;77.95
69911;BME280;63555;49.920;17.868;2022-11-20T06:28:57;98275.41;;;-8.69;77.97
69911;BME280;63555;49.920;17.868;2022-11-20T06:31:24;98269.44;;;-8.68;77.90
69911;BME280;63555;49.920;17.868;2022-11-20T06:33:50;98277.13;;;-8.66;78.12
69911;BME280;63555;49.920;17.868;2022-11-20T06:36:18;98280.50;;;-8.64;77.79
69911;BME280;63555;49.920;17.868;2022-11-20T06:38:44;98271.13;;;-8.62;78.37
69911;BME280;63555;49.920;17.868;2022-11-20T06:41:15;98268.53;;;-8.58;78.00
69911;BME280;63555;49.920;17.868;2022-11-20T06:43:41;98257.41;;;-8.52;78.24
69911;BME280;63555;49.920;17.868;2022-11-20T06:46:09;98261.63;;;-8.45;78.32
69911;BME280;63555;49.920;17.868;2022-11-20T06:48:34;98264.97;;;-8.37;78.57
69911;BME280;63555;49.920;17.868;2022-11-20T06:51:03;98261.44;;;-8.30;78.24
69911;BME280;63555;49.920;17.868;2022-11-20T06:53:28;98257.97;;;-8.21;78.63
69911;BME280;63555;49.920;17.868;2022-11-20T06:55:56;98262.16;;;-8.13;78.74
69911;BME280;63555;49.920;17.868;2022-11-20T06:58:22;98257.81;;;-8.05;78.94
69911;BME280;63555;49.920;17.868;2022-11-20T07:00:48;98254.28;;;-7.94;78.83
69911;BME280;63555;49.920;17.868;2022-11-20T07:03:13;98253.31;;;-7.84;79.08
69911;BME280;63555;49.920;17.868;2022-11-20T07:05:39;98245.56;;;-7.75;78.99
69911;BME280;63555;49.920;17.868;2022-11-20T07:08:05;98242.09;;;-7.68;78.48
69911;BME280;63555;49.920;17.868;2022-11-20T07:10:31;98242.84;;;-7.61;78.72
69911;BME280;63555;49.920;17.868;2022-11-20T07:12:57;98242.75;;;-7.54;79.18
69911;BME280;63555;49.920;17.868;2022-11-20T07:15:24;98246.03;;;-7.43;79.56
69911;BME280;63555;49.920;17.868;2022-11-20T07:17:50;98243.41;;;-7.36;79.37
69911;BME280;63555;49.920;17.868;2022-11-20T07:20:16;98241.59;;;-7.30;79.37
69911;BME280;63555;49.920;17.868;2022-11-20T07:22:41;98240.63;;;-7.21;79.38
69911;BME280;63555;49.920;17.868;2022-11-20T07:25:08;98233.75;;;-7.16;79.04
69911;BME280;63555;49.920;17.868;2022-11-20T07:27:33;98227.66;;;-7.09;79.52
69911;BME280;63555;49.920;17.868;2022-11-20T07:29:59;98236.09;;;-7.02;79.38
69911;BME280;63555;49.920;17.868;2022-11-20T07:32:24;98242.81;;;-6.94;79.82
69911;BME280;63555;49.920;17.868;2022-11-20T07:34:50;98239.31;;;-6.85;79.47
69911;BME280;63555;49.920;17.868;2022-11-20T07:37:15;98244.28;;;-6.76;80.17
69911;BME280;63555;49.920;17.868;2022-11-20T07:39:41;98245.00;;;-6.66;80.61
69911;BME280;63555;49.920;17.868;2022-11-20T07:42:07;98248.19;;;-6.52;80.47
69911;BME280;63555;49.920;17.868;2022-11-20T07:44:33;98253.09;;;-6.38;80.96
69911;BME280;63555;49.920;17.868;2022-11-20T07:46:58;98247.72;;;-6.25;80.79
69911;BME280;63555;49.920;17.868;2022-11-20T07:49:24;98250.84;;;-6.07;80.91
69911;BME280;63555;49.920;17.868;2022-11-20T07:51:52;98245.34;;;-5.88;81.43
69911;BME280;63555;49.920;17.868;2022-11-20T07:54:22;98248.38;;;-5.66;81.75
69911;BME280;63555;49.920;17.868;2022-11-20T07:56:48;98250.38;;;-5.38;81.91
69911;BME280;63555;49.920;17.868;2022-11-20T07:59:14;98234.53;;;-5.16;81.76
69911;BME280;63555;49.920;17.868;2022-11-20T08:01:41;98242.53;;;-4.91;81.90
69911;BME280;63555;49.920;17.868;2022-11-20T08:04:06;98250.59;;;-4.69;81.71
69911;BME280;63555;49.920;17.868;2022-11-20T08:06:32;98252.69;;;-4.47;82.18
69911;BME280;63555;49.920;17.868;2022-11-20T08:08:57;98256.56;;;-4.30;81.43
69911;BME280;63555;49.920;17.868;2022-11-20T08:11:23;98251.91;;;-4.15;81.23
69911;BME280;63555;49.920;17.868;2022-11-20T08:14:07;98244.69;;;-4.01;81.40
69911;BME280;63555;49.920;17.868;2022-11-20T08:19:05;98246.47;;;-3.71;81.36
69911;BME280;63555;49.920;17.868;2022-11-20T08:21:30;98240.09;;;-3.58;81.33
69911;BME280;63555;49.920;17.868;2022-11-20T08:23:57;98237.16;;;-3.44;81.24
69911;BME280;63555;49.920;17.868;2022-11-20T08:26:23;98241.88;;;-3.29;81.46
69911;BME280;63555;49.920;17.868;2022-11-20T08:28:48;98245.69;;;-3.12;81.50
69911;BME280;63555;49.920;17.868;2022-11-20T08:31:14;98249.38;;;-2.92;81.82
69911;BME280;63555;49.920;17.868;2022-11-20T08:33:39;98240.84;;;-2.66;82.00
69911;BME280;63555;49.920;17.868;2022-11-20T08:36:05;98237.38;;;-2.37;82.48
69911;BME280;63555;49.920;17.868;2022-11-20T08:38:32;98241.47;;;-2.05;82.30
69911;BME280;63555;49.920;17.868;2022-11-20T08:40:59;98240.53;;;-1.77;81.99
69911;BME280;63555;49.920;17.868;2022-11-20T08:43:43;98237.75;;;-1.46;81.27
69911;BME280;63555;49.920;17.868;2022-11-20T08:46:09;98229.03;;;-1.20;80.92
69911;BME280;63555;49.920;17.868;2022-11-20T08:48:34;98229.84;;;-0.97;80.97
69911;BME280;63555;49.920;17.868;2022-11-20T08:51:00;98225.38;;;-0.70;80.72
69911;BME280;63555;49.920;17.868;2022-11-20T08:53:27;98226.03;;;-0.43;80.09
69911;BME280;63555;49.920;17.868;2022-11-20T08:55:52;98222.06;;;-0.09;79.92
69911;BME280;63555;49.920;17.868;2022-11-20T08:58:17;98215.16;;;0.32;79.96
69911;BME280;63555;49.920;17.868;2022-11-20T09:00:43;98220.16;;;0.76;79.28
69911;BME280;63555;49.920;17.868;2022-11-20T09:03:08;98215.56;;;1.20;78.11
69911;BME280;63555;49.920;17.868;2022-11-20T09:05:34;98211.66;;;1.65;77.58
69911;BME280;63555;49.920;17.868;2022-11-20T09:07:59;98207.69;;;1.94;76.02
69911;BME280;63555;49.920;17.868;2022-11-20T09:10:26;98206.53;;;1.99;74.77
69911;BME280;63555;49.920;17.868;2022-11-20T09:12:52;98200.78;;;1.92;73.93
69911;BME280;63555;49.920;17.868;2022-11-20T09:15:18;98198.34;;;1.89;73.87
69911;BME280;63555;49.920;17.868;2022-11-20T09:17:53;98193.81;;;2.10;74.50
69911;BME280;63555;49.920;17.868;2022-11-20T09:20:19;98195.88;;;2.71;72.70
69911;BME280;63555;49.920;17.868;2022-11-20T09:22:45;98186.50;;;3.47;72.26
69911;BME280;63555;49.920;17.868;2022-11-20T09:25:10;98185.69;;;4.37;70.00
69911;BME280;63555;49.920;17.868;2022-11-20T09:27:35;98190.97;;;5.21;68.63
69911;BME280;63555;49.920;17.868;2022-11-20T09:30:02;98178.41;;;6.06;67.05
69911;BME280;63555;49.920;17.868;2022-11-20T09:32:27;98177.63;;;6.82;65.12
69911;BME280;63555;49.920;17.868;2022-11-20T09:34:53;98170.28;;;7.60;64.13
69911;BME280;63555;49.920;17.868;2022-11-20T09:37:18;98181.06;;;8.27;60.90
69911;BME280;63555;49.920;17.868;2022-11-20T09:39:43;98174.97;;;8.73;59.64
69911;BME280;63555;49.920;17.868;2022-11-20T09:48:04;98176.38;;;9.76;55.63
69911;BME280;63555;49.920;17.868;2022-11-20T09:50:40;98169.84;;;9.92;54.61
69911;BME280;63555;49.920;17.868;2022-11-20T09:55:38;98164.72;;;10.22;54.00
69911;BME280;63555;49.920;17.868;2022-11-20T09:58:15;98153.28;;;10.53;52.55
69911;BME280;63555;49.920;17.868;2022-11-20T10:00:44;98149.50;;;10.77;52.03
69911;BME280;63555;49.920;17.868;2022-11-20T10:06:13;98138.34;;;10.64;50.16
69911;BME280;63555;49.920;17.868;2022-11-20T10:11:39;98126.50;;;10.89;48.79
69911;BME280;63555;49.920;17.868;2022-11-20T10:14:51;98131.84;;;11.08;48.43
69911;BME280;63555;49.920;17.868;2022-11-20T10:20:46;98127.38;;;11.48;47.25
69911;BME280;63555;49.920;17.868;2022-11-20T10:31:04;98160.00;;;10.67;46.34
69911;BME280;63555;49.920;17.868;2022-11-20T10:33:41;98148.47;;;10.06;46.22
69911;BME280;63555;49.920;17.868;2022-11-20T10:36:23;98152.38;;;9.58;46.60
69911;BME280;63555;49.920;17.868;2022-11-20T10:39:01;98143.22;;;9.31;46.85
69911;BME280;63555;49.920;17.868;2022-11-20T10:41:41;98142.53;;;9.17;46.97
69911;BME280;63555;49.920;17.868;2022-11-20T10:44:20;98130.56;;;9.24;47.04
69911;BME280;63555;49.920;17.868;2022-11-20T10:47:05;98131.50;;;9.35;46.54
69911;BME280;63555;49.920;17.868;2022-11-20T10:49:35;98117.59;;;9.55;46.89
69911;BME280;63555;49.920;17.868;2022-11-20T10:52:17;98121.16;;;9.86;46.58
69911;BME280;63555;49.920;17.868;2022-11-20T11:00:07;98122.38;;;10.65;44.68
69911;BME280;63555;49.920;17.868;2022-11-20T11:02:40;98120.09;;;10.81;45.05
69911;BME280;63555;49.920;17.868;2022-11-20T11:07:40;98112.91;;;11.33;44.46
69911;BME280;63555;49.920;17.868;2022-11-20T11:10:36;98110.28;;;11.53;43.42
69911;BME280;63555;49.920;17.868;2022-11-20T11:13:02;98106.81;;;11.52;43.36
69911;BME280;63555;49.920;17.868;2022-11-20T11:15:35;98103.47;;;11.60;43.44
69911;BME280;63555;49.920;17.868;2022-11-20T11:18:02;98106.81;;;11.71;43.15
69911;BME280;63555;49.920;17.868;2022-11-20T11:20:27;98090.69;;;11.74;43.01
69911;BME280;63555;49.920;17.868;2022-11-20T11:22:56;98083.31;;;11.68;42.76
69911;BME280;63555;49.920;17.868;2022-11-20T11:25:31;98079.13;;;11.75;42.73
69911;BME280;63555;49.920;17.868;2022-11-20T11:28:24;98081.09;;;11.93;43.38
69911;BME280;63555;49.920;17.868;2022-11-20T11:30:51;98083.72;;;12.02;42.46
69911;BME280;63555;49.920;17.868;2022-11-20T11:33:24;98075.81;;;11.73;42.00
69911;BME280;63555;49.920;17.868;2022-11-20T11:35:52;98087.16;;;11.26;42.12
69911;BME280;63555;49.920;17.868;2022-11-20T11:40:53;98088.09;;;10.65;42.87
69911;BME280;63555;49.920;17.868;2022-11-20T11:43:22;98091.41;;;10.37;43.52
69911;BME280;63555;49.920;17.868;2022-11-20T11:46:34;98092.19;;;9.86;43.79
69911;BME280;63555;49.920;17.868;2022-11-20T11:54:33;98080.91;;;8.43;45.99
69911;BME280;63555;49.920;17.868;2022-11-20T11:57:01;98095.28;;;7.93;46.96
69911;BME280;63555;49.920;17.868;2022-11-20T11:59:51;98103.97;;;7.34;47.66
69911;BME280;63555;49.920;17.868;2022-11-20T12:02:38;98096.06;;;6.87;48.26
69911;BME280;63555;49.920;17.868;2022-11-20T12:07:57;98098.25;;;6.31;49.62
69911;BME280;63555;49.920;17.868;2022-11-20T12:15:49;98071.91;;;5.82;50.80
69911;BME280;63555;49.920;17.868;2022-11-20T12:18:18;98066.34;;;5.73;51.05
69911;BME280;63555;49.920;17.868;2022-11-20T12:31:52;98060.34;;;4.65;53.35
69911;BME280;63555;49.920;17.868;2022-11-20T12:34:32;98055.63;;;4.43;54.38
69911;BME280;63555;49.920;17.868;2022-11-20T12:51:15;98027.25;;;3.52;56.49
69911;BME280;63555;49.920;17.868;2022-11-20T13:07:42;98018.03;;;3.16;58.63
69911;BME280;63555;49.920;17.868;2022-11-20T13:15:56;98015.47;;;3.01;59.06
69911;BME280;63555;49.920;17.868;2022-11-20T13:18:20;98012.38;;;2.94;59.81
69911;BME280;63555;49.920;17.868;2022-11-20T13:20:45;98006.41;;;2.92;60.24
69911;BME280;63555;49.920;17.868;2022-11-20T13:23:23;98012.81;;;2.86;60.04
69911;BME280;63555;49.920;17.868;2022-11-20T13:25:48;98021.03;;;2.79;60.12
69911;BME280;63555;49.920;17.868;2022-11-20T13:30:51;98020.13;;;2.64;60.60
69911;BME280;63555;49.920;17.868;2022-11-20T13:33:31;98021.28;;;2.59;60.72
69911;BME280;63555;49.920;17.868;2022-11-20T13:36:03;98022.63;;;2.50;61.09
69911;BME280;63555;49.920;17.868;2022-11-20T13:38:42;98017.09;;;2.40;62.00
69911;BME280;63555;49.920;17.868;2022-11-20T13:41:11;98014.16;;;2.31;61.78
69911;BME280;63555;49.920;17.868;2022-11-20T13:44:24;98015.75;;;2.17;61.94
69911;BME280;63555;49.920;17.868;2022-11-20T13:46:50;98020.34;;;2.12;61.91
69911;BME280;63555;49.920;17.868;2022-11-20T13:49:38;98010.94;;;2.10;62.79
69911;BME280;63555;49.920;17.868;2022-11-20T13:57:57;98019.34;;;2.15;62.28
69911;BME280;63555;49.920;17.868;2022-11-20T14:00:26;98031.34;;;2.17;63.09
69911;BME280;63555;49.920;17.868;2022-11-20T14:03:11;98028.81;;;2.16;62.55
69911;BME280;63555;49.920;17.868;2022-11-20T14:06:01;98021.50;;;2.07;62.93
69911;BME280;63555;49.920;17.868;2022-11-20T14:08:38;98016.88;;;1.96;62.71
69911;BME280;63555;49.920;17.868;2022-11-20T14:11:16;98021.06;;;1.83;63.48
69911;BME280;63555;49.920;17.868;2022-11-20T14:16:30;98009.91;;;1.64;64.46
69911;BME280;63555;49.920;17.868;2022-11-20T14:18:57;98017.84;;;1.60;64.15
69911;BME280;63555;49.920;17.868;2022-11-20T14:21:29;98013.56;;;1.59;64.40
69911;BME280;63555;49.920;17.868;2022-11-20T14:24:05;98023.97;;;1.59;65.09
69911;BME280;63555;49.920;17.868;2022-11-20T14:26:31;98013.72;;;1.56;64.86
69911;BME280;63555;49.920;17.868;2022-11-20T14:29:18;98022.44;;;1.55;65.20
69911;BME280;63555;49.920;17.868;2022-11-20T14:31:45;98023.44;;;1.53;65.10
69911;BME280;63555;49.920;17.868;2022-11-20T14:34:24;98023.59;;;1.50;65.71
69911;BME280;63555;49.920;17.868;2022-11-20T14:36:55;98022.00;;;1.47;65.95
69911;BME280;63555;49.920;17.868;2022-11-20T14:39:22;98020.25;;;1.48;65.81
69911;BME280;63555;49.920;17.868;2022-11-20T14:41:53;98012.44;;;1.48;65.94
69911;BME280;63555;49.920;17.868;2022-11-20T14:44:26;98004.72;;;1.46;66.05
69911;BME280;63555;49.920;17.868;2022-11-20T14:46:52;98010.09;;;1.43;66.71
69911;BME280;63555;49.920;17.868;2022-11-20T14:49:18;98000.00;;;1.37;66.27
69911;BME280;63555;49.920;17.868;2022-11-20T14:51:44;97999.63;;;1.27;67.16
69911;BME280;63555;49.920;17.868;2022-11-20T14:54:14;98000.31;;;1.14;66.90
69911;BME280;63555;49.920;17.868;2022-11-20T14:56:40;98005.38;;;1.00;67.33
69911;BME280;63555;49.920;17.868;2022-11-20T14:59:06;98002.53;;;0.87;67.86